sensor_id;sensor_type;location;lat;lon;timestamp;pressure;altitude;pressure_sealevel;temperature;humidity
72110;BME280;59983;52.010;5.420;2023-06-01T00:00:54;102427.88;;;13.32;83.07
72110;BME280;59983;52.010;5.420;2023-06-01T00:03:22;102424.53;;;13.35;83.05
72110;BME280;59983;52.010;5.420;2023-06-01T00:05:50;102426.41;;;13.43;82.74
72110;BME280;59983;52.010;5.420;2023-06-01T00:08:17;102420.50;;;13.32;82.24
72110;BME280;59983;52.010;5.420;2023-06-01T00:10:43;102425.94;;;13.15;82.76
72110;BME280;59983;52.010;5.420;2023-06-01T00:13:10;102430.94;;;12.96;83.16
72110;BME280;59983;52.010;5.420;2023-06-01T00:15:37;102418.31;;;12.91;84.19
72110;BME280;59983;52.010;5.420;2023-06-01T00:18:03;102423.75;;;13.09;83.30
72110;BME280;59983;52.010;5.420;2023-06-01T00:20:32;102421.63;;;13.05;83.13
72110;BME280;59983;52.010;5.420;2023-06-01T00:22:58;102416.53;;;13.04;83.79
72110;BME280;59983;52.010;5.420;2023-06-01T00:25:26;102417.47;;;13.17;83.42
72110;BME280;59983;52.010;5.420;2023-06-01T00:27:53;102409.31;;;13.17;83.08
72110;BME280;59983;52.010;5.420;2023-06-01T00:30:19;102419.72;;;13.23;82.94
72110;BME280;59983;52.010;5.420;2023-06-01T00:32:46;102416.66;;;13.16;82.39
72110;BME280;59983;52.010;5.420;2023-06-01T00:35:12;102415.06;;;13.07;82.98
72110;BME280;59983;52.010;5.420;2023-06-01T00:37:39;102411.38;;;13.11;82.97
72110;BME280;59983;52.010;5.420;2023-06-01T00:40:06;102413.31;;;13.11;83.00
72110;BME280;59983;52.010;5.420;2023-06-01T00:42:33;102413.13;;;13.07;83.27
72110;BME280;59983;52.010;5.420;2023-06-01T00:44:59;102412.31;;;13.15;82.94
72110;BME280;59983;52.010;5.420;2023-06-01T00:47:26;102409.94;;;13.22;82.70
72110;BME280;59983;52.010;5.420;2023-06-01T00:49:53;102419.88;;;13.27;82.08
72110;BME280;59983;52.010;5.420;2023-06-01T00:52:20;102402.75;;;13.09;82.67
72110;BME280;59983;52.010;5.420;2023-06-01T00:54:48;102413.97;;;12.99;83.17
72110;BME280;59983;52.010;5.420;2023-06-01T00:57:15;102417.66;;;12.86;83.79
72110;BME280;59983;52.010;5.420;2023-06-01T00:59:42;102413.00;;;12.95;83.57
72110;BME280;59983;52.010;5.420;2023-06-01T01:02:10;102419.88;;;13.10;83.24
72110;BME280;59983;52.010;5.420;2023-06-01T01:04:39;102413.31;;;13.11;83.10
72110;BME280;59983;52.010;5.420;2023-06-01T01:07:25;102414.91;;;13.12;82.84
72110;BME280;59983;52.010;5.420;2023-06-01T01:10:07;102418.91;;;13.05;82.90
72110;BME280;59983;52.010;5.420;2023-06-01T01:15:08;102413.19;;;12.81;83.65
72110;BME280;59983;52.010;5.420;2023-06-01T01:17:40;102410.75;;;12.88;84.01
72110;BME280;59983;52.010;5.420;2023-06-01T01:20:15;102412.38;;;12.81;84.12
72110;BME280;59983;52.010;5.420;2023-06-01T01:31:03;102417.81;;;12.98;83.82
72110;BME280;59983;52.010;5.420;2023-06-01T01:33:32;102413.78;;;13.04;83.61
72110;BME280;59983;52.010;5.420;2023-06-01T01:36:00;102415.88;;;12.98;83.49
72110;BME280;59983;52.010;5.420;2023-06-01T01:38:27;102418.59;;;12.98;83.35
72110;BME280;59983;52.010;5.420;2023-06-01T01:40:53;102420.06;;;12.96;83.68
72110;BME280;59983;52.010;5.420;2023-06-01T01:43:21;102420.22;;;13.08;83.27
72110;BME280;59983;52.010;5.420;2023-06-01T01:45:56;102414.59;;;13.04;83.44
72110;BME280;59983;52.010;5.420;2023-06-01T01:48:39;102407.41;;;13.09;83.69
72110;BME280;59983;52.010;5.420;2023-06-01T01:51:11;102404.97;;;13.07;83.24
72110;BME280;59983;52.010;5.420;2023-06-01T01:53:43;102408.69;;;12.94;84.06
72110;BME280;59983;52.010;5.420;2023-06-01T01:56:13;102402.09;;;13.03;84.03
72110;BME280;59983;52.010;5.420;2023-06-01T01:58:40;102408.34;;;13.04;83.72
72110;BME280;59983;52.010;5.420;2023-06-01T02:01:08;102403.88;;;12.99;84.02
72110;BME280;59983;52.010;5.420;2023-06-01T02:03:36;102407.22;;;13.05;83.90
72110;BME280;59983;52.010;5.420;2023-06-01T02:06:02;102400.03;;;13.00;84.16
72110;BME280;59983;52.010;5.420;2023-06-01T02:08:29;102396.16;;;13.10;84.00
72110;BME280;59983;52.010;5.420;2023-06-01T02:10:56;102395.84;;;13.12;83.65
72110;BME280;59983;52.010;5.420;2023-06-01T02:13:22;102390.72;;;13.10;84.02
72110;BME280;59983;52.010;5.420;2023-06-01T02:15:49;102393.94;;;13.03;83.52
72110;BME280;59983;52.010;5.420;2023-06-01T02:18:15;102397.63;;;12.99;83.66
72110;BME280;59983;52.010;5.420;2023-06-01T02:20:44;102400.84;;;13.01;83.16
72110;BME280;59983;52.010;5.420;2023-06-01T02:23:11;102396.19;;;13.01;83.26
72110;BME280;59983;52.010;5.420;2023-06-01T02:25:38;102404.81;;;13.03;83.45
72110;BME280;59983;52.010;5.420;2023-06-01T02:28:04;102395.22;;;12.89;83.14
72110;BME280;59983;52.010;5.420;2023-06-01T02:30:33;102394.59;;;12.92;83.76
72110;BME280;59983;52.010;5.420;2023-06-01T02:33:00;102395.53;;;13.04;83.29
72110;BME280;59983;52.010;5.420;2023-06-01T02:35:26;102395.69;;;13.17;82.56
72110;BME280;59983;52.010;5.420;2023-06-01T02:37:53;102392.47;;;13.06;81.81
72110;BME280;59983;52.010;5.420;2023-06-01T02:40:19;102390.88;;;12.96;82.67
72110;BME280;59983;52.010;5.420;2023-06-01T02:42:46;102395.56;;;12.87;82.97
72110;BME280;59983;52.010;5.420;2023-06-01T02:45:13;102390.91;;;12.79;83.11
72110;BME280;59983;52.010;5.420;2023-06-01T02:47:39;102397.66;;;12.82;83.17
72110;BME280;59983;52.010;5.420;2023-06-01T02:50:06;102397.66;;;12.73;83.02
72110;BME280;59983;52.010;5.420;2023-06-01T02:52:32;102403.56;;;12.49;83.34
72110;BME280;59983;52.010;5.420;2023-06-01T02:54:59;102395.72;;;12.39;83.20
72110;BME280;59983;52.010;5.420;2023-06-01T02:57:26;102393.94;;;12.34;84.10
72110;BME280;59983;52.010;5.420;2023-06-01T02:59:52;102393.16;;;12.42;84.18
72110;BME280;59983;52.010;5.420;2023-06-01T03:02:19;102393.50;;;12.58;83.83
72110;BME280;59983;52.010;5.420;2023-06-01T03:04:46;102395.88;;;12.60;83.03
72110;BME280;59983;52.010;5.420;2023-06-01T03:07:12;102387.25;;;12.58;83.18
72110;BME280;59983;52.010;5.420;2023-06-01T03:09:39;102394.44;;;12.54;83.04
72110;BME280;59983;52.010;5.420;2023-06-01T03:12:06;102387.56;;;12.39;83.55
72110;BME280;59983;52.010;5.420;2023-06-01T03:14:33;102394.59;;;12.48;83.60
72110;BME280;59983;52.010;5.420;2023-06-01T03:16:59;102394.94;;;12.47;83.83
72110;BME280;59983;52.010;5.420;2023-06-01T03:19:26;102390.63;;;12.46;83.46
72110;BME280;59983;52.010;5.420;2023-06-01T03:21:52;102393.34;;;12.46;83.72
72110;BME280;59983;52.010;5.420;2023-06-01T03:24:19;102396.19;;;12.41;83.46
72110;BME280;59983;52.010;5.420;2023-06-01T03:26:46;102393.81;;;12.39;83.95
72110;BME280;59983;52.010;5.420;2023-06-01T03:29:12;102397.34;;;12.48;83.40
72110;BME280;59983;52.010;5.420;2023-06-01T03:31:39;102394.94;;;12.47;82.98
72110;BME280;59983;52.010;5.420;2023-06-01T03:34:06;102398.91;;;12.32;83.87
72110;BME280;59983;52.010;5.420;2023-06-01T03:36:32;102395.72;;;12.39;83.91
72110;BME280;59983;52.010;5.420;2023-06-01T03:38:59;102396.34;;;12.36;83.62
72110;BME280;59983;52.010;5.420;2023-06-01T03:41:26;102397.31;;;12.40;83.26
72110;BME280;59983;52.010;5.420;2023-06-01T03:43:52;102386.56;;;12.26;83.68
72110;BME280;59983;52.010;5.420;2023-06-01T03:46:20;102396.50;;;12.22;83.81
72110;BME280;59983;52.010;5.420;2023-06-01T03:48:47;102397.75;;;12.07;84.39
72110;BME280;59983;52.010;5.420;2023-06-01T03:51:13;102397.75;;;12.16;84.34
72110;BME280;59983;52.010;5.420;2023-06-01T03:53:40;102388.66;;;12.12;84.41
72110;BME280;59983;52.010;5.420;2023-06-01T03:56:06;102392.19;;;12.30;84.23
72110;BME280;59983;52.010;5.420;2023-06-01T03:58:33;102400.03;;;12.31;83.80
72110;BME280;59983;52.010;5.420;2023-06-01T04:01:00;102398.25;;;12.27;84.13
72110;BME280;59983;52.010;5.420;2023-06-01T04:03:27;102400.97;;;12.27;84.08
72110;BME280;59983;52.010;5.420;2023-06-01T04:05:54;102397.28;;;12.14;84.04
72110;BME280;59983;52.010;5.420;2023-06-01T04:08:25;102398.84;;;12.06;84.91
72110;BME280;59983;52.010;5.420;2023-06-01T04:10:53;102387.34;;;12.18;84.53
72110;BME280;59983;52.010;5.420;2023-06-01T04:13:19;102400.66;;;12.19;84.55
72110;BME280;59983;52.010;5.420;2023-06-01T04:15:46;102403.22;;;12.25;84.17
72110;BME280;59983;52.010;5.420;2023-06-01T04:18:13;102398.84;;;12.06;84.82
72110;BME280;59983;52.010;5.420;2023-06-01T04:20:39;102408.63;;;12.16;84.71
72110;BME280;59983;52.010;5.420;2023-06-01T04:23:06;102398.75;;;12.29;84.27
72110;BME280;59983;52.010;5.420;2023-06-01T04:25:33;102405.47;;;12.23;84.47
72110;BME280;59983;52.010;5.420;2023-06-01T04:27:59;102395.72;;;12.30;84.34
72110;BME280;59983;52.010;5.420;2023-06-01T04:30:26;102399.72;;;12.41;84.01
72110;BME280;59983;52.010;5.420;2023-06-01T04:32:52;102398.94;;;12.50;83.89
72110;BME280;59983;52.010;5.420;2023-06-01T04:35:20;102397.16;;;12.54;83.81
72110;BME280;59983;52.010;5.420;2023-06-01T04:37:46;102404.03;;;12.51;83.89
72110;BME280;59983;52.010;5.420;2023-06-01T04:40:13;102405.31;;;12.62;83.98
72110;BME280;59983;52.010;5.420;2023-06-01T04:42:42;102404.06;;;12.77;83.43
72110;BME280;59983;52.010;5.420;2023-06-01T04:45:10;102409.97;;;12.70;83.15
72110;BME280;59983;52.010;5.420;2023-06-01T04:47:37;102406.78;;;12.77;82.86
72110;BME280;59983;52.010;5.420;2023-06-01T04:50:06;102405.19;;;12.76;82.45
72110;BME280;59983;52.010;5.420;2023-06-01T04:52:37;102405.81;;;12.64;82.82
72110;BME280;59983;52.010;5.420;2023-06-01T04:55:05;102402.78;;;12.74;82.52
72110;BME280;59983;52.010;5.420;2023-06-01T04:57:33;102412.22;;;12.77;82.36
72110;BME280;59983;52.010;5.420;2023-06-01T05:00:02;102401.19;;;12.65;82.21
72110;BME280;59983;52.010;5.420;2023-06-01T05:02:32;102413.19;;;12.72;82.91
72110;BME280;59983;52.010;5.420;2023-06-01T05:04:59;102410.28;;;12.86;82.62
72110;BME280;59983;52.010;5.420;2023-06-01T05:07:25;102407.56;;;12.95;82.14
72110;BME280;59983;52.010;5.420;2023-06-01T05:09:52;102406.75;;;13.03;81.64
72110;BME280;59983;52.010;5.420;2023-06-01T05:12:18;102408.34;;;13.04;81.28
72110;BME280;59983;52.010;5.420;2023-06-01T05:14:47;102403.91;;;12.91;81.72
72110;BME280;59983;52.010;5.420;2023-06-01T05:17:13;102409.63;;;12.89;82.06
72110;BME280;59983;52.010;5.420;2023-06-01T05:19:40;102410.13;;;12.91;82.12
72110;BME280;59983;52.010;5.420;2023-06-01T05:22:07;102413.81;;;12.95;81.83
72110;BME280;59983;52.010;5.420;2023-06-01T05:24:33;102409.78;;;13.10;81.87
72110;BME280;59983;52.010;5.420;2023-06-01T05:27:00;102412.66;;;13.22;81.31
72110;BME280;59983;52.010;5.420;2023-06-01T05:29:26;102402.09;;;13.12;80.90
72110;BME280;59983;52.010;5.420;2023-06-01T05:31:53;102406.09;;;13.06;81.09
72110;BME280;59983;52.010;5.420;2023-06-01T05:34:19;102408.19;;;13.09;81.42
72110;BME280;59983;52.010;5.420;2023-06-01T05:36:47;102411.06;;;13.13;81.10
72110;BME280;59983;52.010;5.420;2023-06-01T05:39:15;102415.38;;;13.14;80.53
72110;BME280;59983;52.010;5.420;2023-06-01T05:41:41;102418.28;;;13.17;80.62
72110;BME280;59983;52.010;5.420;2023-06-01T05:44:08;102416.53;;;13.21;80.10
72110;BME280;59983;52.010;5.420;2023-06-01T05:46:34;102416.38;;;13.26;80.30
72110;BME280;59983;52.010;5.420;2023-06-01T05:49:01;102415.69;;;13.29;79.59
72110;BME280;59983;52.010;5.420;2023-06-01T05:51:27;102416.53;;;13.21;79.48
72110;BME280;59983;52.010;5.420;2023-06-01T05:53:54;102425.47;;;13.13;80.31
72110;BME280;59983;52.010;5.420;2023-06-01T05:56:21;102425.16;;;13.23;80.55
72110;BME280;59983;52.010;5.420;2023-06-01T05:58:47;102416.97;;;13.32;80.29
72110;BME280;59983;52.010;5.420;2023-06-01T06:01:19;102426.28;;;13.31;80.00
72110;BME280;59983;52.010;5.420;2023-06-01T06:03:46;102422.28;;;13.28;80.35
72110;BME280;59983;52.010;5.420;2023-06-01T06:06:14;102423.22;;;13.32;79.34
72110;BME280;59983;52.010;5.420;2023-06-01T06:08:40;102420.22;;;13.25;79.64
72110;BME280;59983;52.010;5.420;2023-06-01T06:11:07;102420.34;;;13.38;79.36
72110;BME280;59983;52.010;5.420;2023-06-01T06:13:33;102412.81;;;13.35;79.71
72110;BME280;59983;52.010;5.420;2023-06-01T06:16:00;102423.22;;;13.32;79.75
72110;BME280;59983;52.010;5.420;2023-06-01T06:18:26;102421.59;;;13.40;79.58
72110;BME280;59983;52.010;5.420;2023-06-01T06:20:53;102423.97;;;13.50;79.56
72110;BME280;59983;52.010;5.420;2023-06-01T06:23:19;102421.41;;;13.54;78.95
72110;BME280;59983;52.010;5.420;2023-06-01T06:25:47;102419.97;;;13.48;78.88
72110;BME280;59983;52.010;5.420;2023-06-01T06:28:15;102411.00;;;13.47;78.72
72110;BME280;59983;52.010;5.420;2023-06-01T06:30:42;102420.94;;;13.52;79.31
72110;BME280;59983;52.010;5.420;2023-06-01T06:33:08;102416.69;;;13.72;78.27
72110;BME280;59983;52.010;5.420;2023-06-01T06:35:39;102421.81;;;13.73;77.93
72110;BME280;59983;52.010;5.420;2023-06-01T06:38:07;102415.53;;;13.81;77.87
72110;BME280;59983;52.010;5.420;2023-06-01T06:40:34;102412.09;;;13.93;78.21
72110;BME280;59983;52.010;5.420;2023-06-01T06:43:01;102425.72;;;13.93;77.29
72110;BME280;59983;52.010;5.420;2023-06-01T06:45:27;102420.22;;;14.02;77.79
72110;BME280;59983;52.010;5.420;2023-06-01T06:47:54;102426.69;;;13.97;76.76
72110;BME280;59983;52.010;5.420;2023-06-01T06:50:21;102428.88;;;14.04;77.38
72110;BME280;59983;52.010;5.420;2023-06-01T06:52:47;102417.31;;;14.07;76.75
72110;BME280;59983;52.010;5.420;2023-06-01T06:55:14;102415.53;;;14.11;77.12
72110;BME280;59983;52.010;5.420;2023-06-01T06:57:40;102420.94;;;14.20;76.22
72110;BME280;59983;52.010;5.420;2023-06-01T07:00:07;102421.94;;;14.15;77.27
72110;BME280;59983;52.010;5.420;2023-06-01T07:02:35;102421.09;;;14.23;77.28
72110;BME280;59983;52.010;5.420;2023-06-01T07:05:02;102428.06;;;14.33;76.46
72110;BME280;59983;52.010;5.420;2023-06-01T07:07:30;102427.50;;;14.18;75.05
72110;BME280;59983;52.010;5.420;2023-06-01T07:09:57;102422.19;;;13.93;75.81
72110;BME280;59983;52.010;5.420;2023-06-01T07:12:23;102430.09;;;13.85;76.28
72110;BME280;59983;52.010;5.420;2023-06-01T07:14:50;102425.94;;;13.88;75.29
72110;BME280;59983;52.010;5.420;2023-06-01T07:17:19;102429.28;;;13.85;75.72
72110;BME280;59983;52.010;5.420;2023-06-01T07:19:46;102429.78;;;13.87;76.25
72110;BME280;59983;52.010;5.420;2023-06-01T07:22:13;102422.78;;;14.07;75.62
72110;BME280;59983;52.010;5.420;2023-06-01T07:24:40;102420.28;;;14.23;74.66
72110;BME280;59983;52.010;5.420;2023-06-01T07:27:06;102425.25;;;14.21;74.89
72110;BME280;59983;52.010;5.420;2023-06-01T07:29:34;102434.09;;;14.17;74.66
72110;BME280;59983;52.010;5.420;2023-06-01T07:32:01;102427.56;;;14.10;74.69
72110;BME280;59983;52.010;5.420;2023-06-01T07:34:27;102419.88;;;14.03;74.28
72110;BME280;59983;52.010;5.420;2023-06-01T07:36:54;102416.69;;;14.01;75.88
72110;BME280;59983;52.010;5.420;2023-06-01T07:39:42;102424.28;;;14.25;75.17
72110;BME280;59983;52.010;5.420;2023-06-01T07:42:08;102423.34;;;14.51;75.32
72110;BME280;59983;52.010;5.420;2023-06-01T07:44:35;102416.56;;;14.90;74.41
72110;BME280;59983;52.010;5.420;2023-06-01T07:47:02;102422.03;;;14.90;72.79
72110;BME280;59983;52.010;5.420;2023-06-01T07:49:28;102421.22;;;14.89;71.52
72110;BME280;59983;52.010;5.420;2023-06-01T07:51:55;102422.00;;;14.78;72.46
72110;BME280;59983;52.010;5.420;2023-06-01T07:54:23;102420.16;;;14.82;72.76
72110;BME280;59983;52.010;5.420;2023-06-01T07:56:49;102424.56;;;14.95;71.72
72110;BME280;59983;52.010;5.420;2023-06-01T07:59:16;102413.97;;;14.72;71.78
72110;BME280;59983;52.010;5.420;2023-06-01T08:01:42;102423.78;;;14.73;73.44
72110;BME280;59983;52.010;5.420;2023-06-01T08:04:09;102420.59;;;14.71;72.20
72110;BME280;59983;52.010;5.420;2023-06-01T08:06:37;102416.06;;;14.55;71.96
72110;BME280;59983;52.010;5.420;2023-06-01T08:09:04;102418.13;;;14.58;73.25
72110;BME280;59983;52.010;5.420;2023-06-01T08:11:32;102409.31;;;14.73;72.17
72110;BME280;59983;52.010;5.420;2023-06-01T08:13:58;102413.16;;;14.93;71.88
72110;BME280;59983;52.010;5.420;2023-06-01T08:16:30;102408.50;;;14.93;70.99
72110;BME280;59983;52.010;5.420;2023-06-01T08:18:58;102409.09;;;14.99;71.60
72110;BME280;59983;52.010;5.420;2023-06-01T08:21:25;102410.78;;;15.37;71.61
72110;BME280;59983;52.010;5.420;2023-06-01T08:23:55;102404.13;;;15.71;71.35
72110;BME280;59983;52.010;5.420;2023-06-01T08:26:22;102386.66;;;16.12;69.57
72110;BME280;59983;52.010;5.420;2023-06-01T08:28:49;102388.34;;;16.29;68.59
72110;BME280;59983;52.010;5.420;2023-06-01T08:31:20;102391.41;;;16.39;67.56
72110;BME280;59983;52.010;5.420;2023-06-01T08:33:47;102401.91;;;16.37;67.03
72110;BME280;59983;52.010;5.420;2023-06-01T08:36:15;102396.84;;;15.87;67.32
72110;BME280;59983;52.010;5.420;2023-06-01T08:38:41;102386.22;;;15.98;69.29
72110;BME280;59983;52.010;5.420;2023-06-01T08:41:20;102394.34;;;16.47;68.38
72110;BME280;59983;52.010;5.420;2023-06-01T08:43:59;102397.97;;;16.91;67.44
72110;BME280;59983;52.010;5.420;2023-06-01T08:46:31;102388.50;;;17.32;66.05
72110;BME280;59983;52.010;5.420;2023-06-01T08:48:58;102397.34;;;17.25;64.55
72110;BME280;59983;52.010;5.420;2023-06-01T08:51:25;102391.06;;;16.81;64.46
72110;BME280;59983;52.010;5.420;2023-06-01T08:53:53;102386.28;;;16.66;64.61
72110;BME280;59983;52.010;5.420;2023-06-01T08:56:23;102385.28;;;16.70;64.53
72110;BME280;59983;52.010;5.420;2023-06-01T08:58:50;102382.91;;;16.57;65.52
72110;BME280;59983;52.010;5.420;2023-06-01T09:01:19;102383.41;;;17.03;65.88
72110;BME280;59983;52.010;5.420;2023-06-01T09:03:48;102388.84;;;17.15;64.39
72110;BME280;59983;52.010;5.420;2023-06-01T09:06:15;102390.50;;;17.19;63.97
72110;BME280;59983;52.010;5.420;2023-06-01T09:08:42;102382.56;;;17.30;63.56
72110;BME280;59983;52.010;5.420;2023-06-01T09:11:09;102389.28;;;17.33;63.78
72110;BME280;59983;52.010;5.420;2023-06-01T09:13:40;102377.44;;;17.44;64.24
72110;BME280;59983;52.010;5.420;2023-06-01T09:16:06;102389.63;;;17.63;60.89
72110;BME280;59983;52.010;5.420;2023-06-01T09:18:33;102385.91;;;17.55;63.26
72110;BME280;59983;52.010;5.420;2023-06-01T09:21:13;102383.03;;;17.79;62.42
72110;BME280;59983;52.010;5.420;2023-06-01T09:23:39;102372.09;;;17.83;61.05
72110;BME280;59983;52.010;5.420;2023-06-01T09:26:10;102368.94;;;17.81;61.82
72110;BME280;59983;52.010;5.420;2023-06-01T09:28:56;102364.25;;;17.81;61.06
72110;BME280;59983;52.010;5.420;2023-06-01T09:31:40;102364.59;;;17.80;60.78
72110;BME280;59983;52.010;5.420;2023-06-01T09:34:15;102356.00;;;17.66;62.87
72110;BME280;59983;52.010;5.420;2023-06-01T09:36:45;102344.31;;;17.85;61.31
72110;BME280;59983;52.010;5.420;2023-06-01T09:39:13;102354.81;;;17.98;60.68
72110;BME280;59983;52.010;5.420;2023-06-01T09:41:55;102360.25;;;17.79;62.10
72110;BME280;59983;52.010;5.420;2023-06-01T09:44:38;102357.13;;;17.96;61.81
72110;BME280;59983;52.010;5.420;2023-06-01T09:47:07;102348.31;;;18.06;61.74
72110;BME280;59983;52.010;5.420;2023-06-01T09:49:43;102349.88;;;18.23;61.68
72110;BME280;59983;52.010;5.420;2023-06-01T09:52:13;102353.03;;;18.45;59.30
72110;BME280;59983;52.010;5.420;2023-06-01T09:54:49;102356.25;;;18.47;60.78
72110;BME280;59983;52.010;5.420;2023-06-01T09:57:24;102347.91;;;18.62;59.62
72110;BME280;59983;52.010;5.420;2023-06-01T09:59:51;102348.06;;;18.31;59.39
72110;BME280;59983;52.010;5.420;2023-06-01T10:02:22;102342.94;;;18.49;60.76
72110;BME280;59983;52.010;5.420;2023-06-01T10:04:51;102346.22;;;18.19;57.91
72110;BME280;59983;52.010;5.420;2023-06-01T10:07:20;102341.88;;;17.99;59.20
72110;BME280;59983;52.010;5.420;2023-06-01T10:09:55;102340.25;;;18.33;59.29
72110;BME280;59983;52.010;5.420;2023-06-01T10:12:22;102336.56;;;18.45;57.82
72110;BME280;59983;52.010;5.420;2023-06-01T10:14:50;102336.19;;;18.46;57.89
72110;BME280;59983;52.010;5.420;2023-06-01T10:17:18;102337.81;;;18.47;58.55
72110;BME280;59983;52.010;5.420;2023-06-01T10:19:45;102339.81;;;18.70;59.15
72110;BME280;59983;52.010;5.420;2023-06-01T10:22:12;102338.34;;;18.95;57.63
72110;BME280;59983;52.010;5.420;2023-06-01T10:24:40;102337.22;;;18.77;56.39
72110;BME280;59983;52.010;5.420;2023-06-01T10:27:27;102335.53;;;18.53;57.74
72110;BME280;59983;52.010;5.420;2023-06-01T10:29:55;102341.50;;;18.97;58.71
72110;BME280;59983;52.010;5.420;2023-06-01T10:35:04;102339.88;;;19.15;55.25
72110;BME280;59983;52.010;5.420;2023-06-01T10:37:31;102340.06;;;19.03;57.23
72110;BME280;59983;52.010;5.420;2023-06-01T10:42:43;102346.19;;;18.74;57.08
72110;BME280;59983;52.010;5.420;2023-06-01T10:48:03;102334.94;;;19.02;56.19
72110;BME280;59983;52.010;5.420;2023-06-01T10:50:30;102327.28;;;18.91;56.02
72110;BME280;59983;52.010;5.420;2023-06-01T10:53:24;102336.88;;;19.01;56.08
72110;BME280;59983;52.010;5.420;2023-06-01T10:58:43;102315.84;;;19.12;53.95
72110;BME280;59983;52.010;5.420;2023-06-01T11:01:10;102314.75;;;18.94;54.17
72110;BME280;59983;52.010;5.420;2023-06-01T11:03:45;102316.75;;;18.97;54.63
72110;BME280;59983;52.010;5.420;2023-06-01T11:06:32;102317.69;;;19.05;56.05
72110;BME280;59983;52.010;5.420;2023-06-01T11:09:03;102323.78;;;19.40;55.13
72110;BME280;59983;52.010;5.420;2023-06-01T11:14:26;102316.13;;;19.53;54.03
72110;BME280;59983;52.010;5.420;2023-06-01T11:16:53;102327.44;;;19.71;54.76
72110;BME280;59983;52.010;5.420;2023-06-01T11:19:24;102320.16;;;19.86;53.25
72110;BME280;59983;52.010;5.420;2023-06-01T11:21:55;102307.28;;;19.93;53.44
72110;BME280;59983;52.010;5.420;2023-06-01T11:24:35;102317.63;;;19.50;53.87
72110;BME280;59983;52.010;5.420;2023-06-01T11:27:06;102319.78;;;19.61;54.65
72110;BME280;59983;52.010;5.420;2023-06-01T11:29:33;102315.06;;;19.88;52.42
72110;BME280;59983;52.010;5.420;2023-06-01T11:32:03;102306.00;;;19.87;52.60
72110;BME280;59983;52.010;5.420;2023-06-01T11:34:41;102308.44;;;19.92;51.45
72110;BME280;59983;52.010;5.420;2023-06-01T11:37:14;102309.88;;;19.83;53.73
72110;BME280;59983;52.010;5.420;2023-06-01T11:39:42;102309.22;;;20.23;54.02
72110;BME280;59983;52.010;5.420;2023-06-01T11:42:11;102305.19;;;20.47;52.32
72110;BME280;59983;52.010;5.420;2023-06-01T11:44:45;102301.09;;;20.03;52.91
72110;BME280;59983;52.010;5.420;2023-06-01T11:47:13;102299.75;;;20.20;53.28
72110;BME280;59983;52.010;5.420;2023-06-01T11:52:09;102313.69;;;20.04;51.30
72110;BME280;59983;52.010;5.420;2023-06-01T11:54:35;102317.72;;;20.11;51.16
72110;BME280;59983;52.010;5.420;2023-06-01T11:57:03;102311.72;;;20.35;52.69
72110;BME280;59983;52.010;5.420;2023-06-01T11:59:41;102305.38;;;20.64;51.33
72110;BME280;59983;52.010;5.420;2023-06-01T12:02:18;102296.69;;;20.62;51.13
72110;BME280;59983;52.010;5.420;2023-06-01T12:04:57;102308.06;;;20.95;50.48
72110;BME280;59983;52.010;5.420;2023-06-01T12:07:25;102303.44;;;21.09;50.06
72110;BME280;59983;52.010;5.420;2023-06-01T12:09:53;102310.06;;;21.01;50.00
72110;BME280;59983;52.010;5.420;2023-06-01T12:12:24;102304.25;;;20.69;49.85
72110;BME280;59983;52.010;5.420;2023-06-01T12:14:51;102302.53;;;20.57;50.64
72110;BME280;59983;52.010;5.420;2023-06-01T12:17:18;102304.22;;;20.65;50.92
72110;BME280;59983;52.010;5.420;2023-06-01T12:19:46;102314.41;;;20.61;51.51
72110;BME280;59983;52.010;5.420;2023-06-01T12:22:14;102309.97;;;20.50;52.62
72110;BME280;59983;52.010;5.420;2023-06-01T12:24:43;102308.34;;;20.49;52.16
72110;BME280;59983;52.010;5.420;2023-06-01T12:27:14;102317.13;;;20.58;53.08
72110;BME280;59983;52.010;5.420;2023-06-01T12:29:43;102310.94;;;20.68;52.87
72110;BME280;59983;52.010;5.420;2023-06-01T12:32:11;102308.06;;;20.57;53.89
72110;BME280;59983;52.010;5.420;2023-06-01T12:34:39;102312.84;;;20.60;53.96
72110;BME280;59983;52.010;5.420;2023-06-01T12:37:13;102323.16;;;20.37;52.89
72110;BME280;59983;52.010;5.420;2023-06-01T12:39:40;102323.06;;;20.60;53.41
72110;BME280;59983;52.010;5.420;2023-06-01T12:42:08;102323.06;;;21.01;52.44
72110;BME280;59983;52.010;5.420;2023-06-01T12:44:36;102323.66;;;20.80;53.42
72110;BME280;59983;52.010;5.420;2023-06-01T12:47:05;102329.03;;;21.06;52.71
72110;BME280;59983;52.010;5.420;2023-06-01T12:49:32;102331.81;;;21.06;51.05
72110;BME280;59983;52.010;5.420;2023-06-01T12:51:59;102327.34;;;20.54;52.62
72110;BME280;59983;52.010;5.420;2023-06-01T12:54:25;102309.59;;;20.51;52.61
72110;BME280;59983;52.010;5.420;2023-06-01T12:56:52;102315.38;;;20.43;53.28
72110;BME280;59983;52.010;5.420;2023-06-01T12:59:19;102329.16;;;20.76;52.57
72110;BME280;59983;52.010;5.420;2023-06-01T13:01:45;102323.06;;;20.60;53.21
72110;BME280;59983;52.010;5.420;2023-06-01T13:04:12;102323.47;;;19.98;54.66
72110;BME280;59983;52.010;5.420;2023-06-01T13:06:39;102324.44;;;19.83;55.20
72110;BME280;59983;52.010;5.420;2023-06-01T13:09:06;102328.53;;;19.43;56.69
72110;BME280;59983;52.010;5.420;2023-06-01T13:11:33;102330.69;;;19.08;57.11
72110;BME280;59983;52.010;5.420;2023-06-01T13:14:00;102329.09;;;18.84;59.49
72110;BME280;59983;52.010;5.420;2023-06-01T13:16:26;102317.56;;;18.98;57.94
72110;BME280;59983;52.010;5.420;2023-06-01T13:18:53;102321.81;;;18.72;59.02
72110;BME280;59983;52.010;5.420;2023-06-01T13:21:20;102325.72;;;18.52;59.61
72110;BME280;59983;52.010;5.420;2023-06-01T13:23:47;102316.81;;;18.58;60.41